Time,TemperatureF,DewpointF,PressureIn,WindDirection,WindDirectionDegrees,WindSpeedMPH,WindSpeedGustMPH,Humidity,HourlyPrecipIn,Conditions,Clouds,dailyrainin,SoftwareType,DateUTC
2013-02-20 00:00:00,33.9,31.0,29.86,East,89,1.1,1.1,89,0.00,RA,,0.00,WeatherDisplay:10.37,2013-02-20 08:00:00,
2013-02-20 00:05:00,34.0,31.4,29.86,East,85,1.1,1.1,90,0.00,RA,,0.00,WeatherDisplay:10.37,2013-02-20 08:05:00,
2013-02-20 00:10:00,34.0,31.1,29.86,East,82,0.0,0.0,89,0.00,CLR,,0.00,WeatherDisplay:10.37,2013-02-20 08:10:00,
2013-02-20 00:15:00,34.1,31.5,29.86,NNW,345,0.0,0.0,90,0.00,CLR,,0.00,WeatherDisplay:10.37,2013-02-20 08:15:00,
2013-02-20 00:21:00,34.1,31.2,29.86,NNW,334,1.1,1.1,89,0.00,CLR,,0.00,WeatherDisplay:10.37,2013-02-20 08:21:00,
2013-02-20 00:26:00,34.0,31.4,29.87,NNW,333,1.1,0.0,90,0.00,CLR,,0.00,WeatherDisplay:10.37,2013-02-20 08:26:00,
2013-02-20 00:31:00,33.8,30.9,29.87,NNW,335,0.0,0.0,89,0.00,CLR,,0.00,WeatherDisplay:10.37,2013-02-20 08:31:00,
2013-02-20 00:36:00,33.5,30.6,29.87,NNW,334,0.0,0.0,89,0.00,CLR,,0.00,WeatherDisplay:10.37,2013-02-20 08:36:00,
2013-02-20 00:41:00,33.2,30.6,29.86,NNW,333,0.0,0.0,90,0.00,CLR,,0.00,WeatherDisplay:10.37,2013-02-20 08:41:00,
2013-02-20 00:46:00,33.0,30.4,29.87,NNW,333,0.0,0.0,90,0.00,CLR,,0.00,WeatherDisplay:10.37,2013-02-20 08:46:00,
2013-02-20 00:51:00,32.9,30.6,29.87,NNW,333,0.0,0.0,91,0.00,CLR,,0.00,WeatherDisplay:10.37,2013-02-20 08:51:00,
2013-02-20 00:56:00,32.8,30.5,29.87,NNW,333,0.0,0.0,91,0.00,CLR,,0.00,WeatherDisplay:10.37,2013-02-20 08:56:00,
2013-02-20 01:01:00,32.6,30.3,29.87,NNW,333,0.0,0.0,91,0.00,CLR,,0.00,WeatherDisplay:10.37,2013-02-20 09:01:00,
2013-02-20 01:06:00,32.9,30.6,29.87,ENE,75,1.1,1.1,91,0.00,CLR,,0.00,WeatherDisplay:10.37,2013-02-20 09:06:00,
2013-02-20 01:11:00,33.1,30.8,29.87,ENE,75,2.3,2.3,91,0.00,CLR,,0.00,WeatherDisplay:10.37,2013-02-20 09:11:00,
2013-02-20 01:16:00,33.4,31.1,29.87,ENE,74,0.0,0.0,91,0.00,CLR,,0.00,WeatherDisplay:10.37,2013-02-20 09:16:00,
2013-02-20 01:21:00,33.5,31.2,29.87,ENE,74,0.0,0.0,91,0.00,CLR,,0.00,WeatherDisplay:10.37,2013-02-20 09:21:00,
2013-02-20 01:26:00,33.4,31.1,29.87,ENE,74,0.0,0.0,91,0.00,CLR,,0.00,WeatherDisplay:10.37,2013-02-20 09:26:00,
2013-02-20 01:31:00,33.3,31.0,29.88,ENE,74,0.0,0.0,91,0.00,CLR,,0.00,WeatherDisplay:10.37,2013-02-20 09:31:00,
2013-02-20 01:36:00,33.5,31.2,29.88,ENE,73,0.0,0.0,91,0.00,CLR,,0.00,WeatherDisplay:10.37,2013-02-20 09:36:00,
2013-02-20 01:41:00,33.5,31.2,29.88,North,352,0.0,0.0,91,0.00,CLR,,0.00,WeatherDisplay:10.37,2013-02-20 09:41:00,
2013-02-20 01:46:00,33.5,31.2,29.88,NNW,336,1.0,1.0,91,0.00,CLR,,0.00,WeatherDisplay:10.37,2013-02-20 09:46:00,
2013-02-20 01:51:00,33.2,30.6,29.88,NNW,340,3.5,3.5,90,0.00,CLR,,0.00,WeatherDisplay:10.37,2013-02-20 09:51:00,
2013-02-20 01:56:00,32.8,30.2,29.88,NNW,338,3.5,3.5,90,0.00,CLR,,0.00,WeatherDisplay:10.37,2013-02-20 09:56:00,
2013-02-20 02:01:00,32.2,29.6,29.89,NNW,333,3.5,3.5,90,0.00,CLR,,0.00,WeatherDisplay:10.37,2013-02-20 10:01:00,
2013-02-20 02:06:00,32.7,30.6,29.89,NNW,333,3.5,3.5,92,0.00,CLR,,0.00,WeatherDisplay:10.37,2013-02-20 10:06:00,
2013-02-20 02:11:00,33.0,30.7,29.89,NNW,331,2.3,2.3,91,0.00,CLR,,0.00,WeatherDisplay:10.37,2013-02-20 10:11:00,
2013-02-20 02:16:00,33.0,30.7,29.89,NNE,30,2.3,2.3,91,0.00,CLR,,0.00,WeatherDisplay:10.37,2013-02-20 10:16:00,
2013-02-20 02:21:00,32.9,30.6,29.89,NNW,342,1.1,1.1,91,0.00,CLR,,0.00,WeatherDisplay:10.37,2013-02-20 10:21:00,
2013-02-20 02:26:00,32.9,30.6,29.89,NNW,347,1.1,1.1,91,0.00,CLR,,0.00,WeatherDisplay:10.37,2013-02-20 10:26:00,
2013-02-20 02:31:00,32.9,30.6,29.89,NNW,347,1.1,1.1,91,0.00,CLR,,0.00,WeatherDisplay:10.37,2013-02-20 10:31:00,
2013-02-20 02:36:00,32.7,30.4,29.89,North,349,1.1,1.1,91,0.00,CLR,,0.00,WeatherDisplay:10.37,2013-02-20 10:36:00,
2013-02-20 02:41:00,32.8,30.5,29.89,NNE,28,2.3,2.3,91,0.00,CLR,,0.00,WeatherDisplay:10.37,2013-02-20 10:41:00,
2013-02-20 02:46:00,33.0,30.7,29.89,NNE,12,1.1,1.1,91,0.00,CLR,,0.00,WeatherDisplay:10.37,2013-02-20 10:46:00,
2013-02-20 02:51:00,32.9,30.6,29.90,North,354,1.1,1.1,91,0.00,CLR,,0.00,WeatherDisplay:10.37,2013-02-20 10:51:00,
2013-02-20 02:56:00,32.7,30.4,29.90,North,4,1.1,0.0,91,0.00,CLR,,0.00,WeatherDisplay:10.37,2013-02-20 10:56:00,
2013-02-20 03:01:00,32.6,30.3,29.90,North,4,1.1,0.0,91,0.00,CLR,,0.00,WeatherDisplay:10.37,2013-02-20 11:01:00,
2013-02-20 03:06:00,32.5,30.4,29.90,NW,307,2.3,2.3,92,0.00,CLR,,0.00,WeatherDisplay:10.37,2013-02-20 11:06:00,
2013-02-20 03:12:00,32.8,30.7,29.90,NNW,334,1.1,1.1,92,0.00,CLR,,0.00,WeatherDisplay:10.37,2013-02-20 11:12:00,
2013-02-20 03:17:00,32.6,30.3,29.90,NNW,334,1.1,1.1,91,0.00,CLR,,0.00,WeatherDisplay:10.37,2013-02-20 11:17:00,
2013-02-20 03:22:00,32.9,30.8,29.90,NW,316,1.1,1.1,92,0.00,CLR,,0.00,WeatherDisplay:10.37,2013-02-20 11:22:00,
2013-02-20 03:27:00,33.2,31.1,29.90,NW,316,1.1,0.0,92,0.00,CLR,,0.00,WeatherDisplay:10.37,2013-02-20 11:27:00,
2013-02-20 03:32:00,33.2,30.9,29.90,NW,316,0.0,0.0,91,0.00,CLR,,0.00,WeatherDisplay:10.37,2013-02-20 11:32:00,
2013-02-20 03:37:00,32.9,30.6,29.90,NW,316,0.0,0.0,91,0.00,CLR,,0.00,WeatherDisplay:10.37,2013-02-20 11:37:00,
2013-02-20 03:42:00,32.0,29.4,29.90,North,5,1.1,1.1,90,0.00,CLR,,0.00,WeatherDisplay:10.37,2013-02-20 11:42:00,
2013-02-20 03:47:00,31.4,28.8,29.91,North,5,0.0,0.0,90,0.00,CLR,,0.00,WeatherDisplay:10.37,2013-02-20 11:47:00,
2013-02-20 03:52:00,31.0,28.7,29.91,North,5,0.0,0.0,91,0.00,CLR,,0.00,WeatherDisplay:10.37,2013-02-20 11:52:00,
2013-02-20 03:57:00,31.3,29.2,29.91,North,5,0.0,0.0,92,0.00,CLR,,0.00,WeatherDisplay:10.37,2013-02-20 11:57:00,
2013-02-20 04:02:00,31.2,29.1,29.91,North,5,0.0,0.0,92,0.00,CLR,,0.00,WeatherDisplay:10.37,2013-02-20 12:02:00,
2013-02-20 04:07:00,31.3,29.5,29.91,North,5,0.0,0.0,93,0.00,CLR,,0.00,WeatherDisplay:10.37,2013-02-20 12:07:00,
2013-02-20 04:12:00,31.2,29.1,29.91,North,5,0.0,0.0,92,0.00,CLR,,0.00,WeatherDisplay:10.37,2013-02-20 12:12:00,
2013-02-20 04:17:00,31.6,29.8,29.91,NNW,330,2.3,2.3,93,0.00,CLR,,0.00,WeatherDisplay:10.37,2013-02-20 12:17:00,
2013-02-20 04:22:00,31.7,29.9,29.91,North,352,2.3,2.3,93,0.00,CLR,,0.00,WeatherDisplay:10.37,2013-02-20 12:22:00,
2013-02-20 04:27:00,31.9,30.1,29.91,NW,325,1.1,1.1,93,0.00,CLR,,0.00,WeatherDisplay:10.37,2013-02-20 12:27:00,
2013-02-20 04:32:00,31.7,29.6,29.92,ENE,75,3.0,3.0,92,0.00,CLR,,0.00,WeatherDisplay:10.37,2013-02-20 12:32:00,
2013-02-20 04:37:00,31.4,29.3,29.92,ENE,72,2.3,2.3,92,0.00,CLR,,0.00,WeatherDisplay:10.37,2013-02-20 12:37:00,
2013-02-20 04:42:00,31.5,29.4,29.92,ENE,72,0.0,0.0,92,0.00,CLR,,0.00,WeatherDisplay:10.37,2013-02-20 12:42:00,
2013-02-20 04:47:00,31.6,29.5,29.92,NNW,336,0.0,0.0,92,0.00,CLR,,0.00,WeatherDisplay:10.37,2013-02-20 12:47:00,
2013-02-20 04:52:00,31.9,30.1,29.92,NW,316,0.0,0.0,93,0.00,CLR,,0.00,WeatherDisplay:10.37,2013-02-20 12:52:00,
2013-02-20 04:57:00,32.2,30.4,29.92,NW,307,1.1,1.1,93,0.00,CLR,,0.00,WeatherDisplay:10.37,2013-02-20 12:57:00,
2013-02-20 05:02:00,32.3,30.2,29.92,NNW,330,1.1,0.0,92,0.00,CLR,,0.00,WeatherDisplay:10.37,2013-02-20 13:02:00,
2013-02-20 05:08:00,32.3,30.2,29.92,NNW,330,0.0,0.1,92,0.00,CLR,,0.00,WeatherDisplay:10.37,2013-02-20 13:08:00,
2013-02-20 05:13:00,32.3,30.2,29.92,NE,34,2.3,2.3,92,0.00,CLR,,0.00,WeatherDisplay:10.37,2013-02-20 13:13:00,
2013-02-20 05:18:00,32.3,30.0,29.92,East,84,2.0,2.0,91,0.00,CLR,,0.00,WeatherDisplay:10.37,2013-02-20 13:18:00,
2013-02-20 05:23:00,32.5,30.4,29.92,NE,34,3.5,3.5,92,0.00,CLR,,0.00,WeatherDisplay:10.37,2013-02-20 13:23:00,
2013-02-20 05:28:00,33.1,30.8,29.93,NW,325,2.3,2.3,91,0.00,CLR,,0.00,WeatherDisplay:10.37,2013-02-20 13:28:00,
2013-02-20 05:33:00,32.9,30.3,29.93,NNE,18,2.3,2.3,90,0.00,CLR,,0.00,WeatherDisplay:10.37,2013-02-20 13:33:00,
2013-02-20 05:38:00,32.6,30.3,29.93,NNW,345,2.3,2.3,91,0.00,CLR,,0.00,WeatherDisplay:10.37,2013-02-20 13:38:00,
2013-02-20 05:43:00,32.2,29.9,29.93,NE,44,3.0,3.0,91,0.00,CLR,,0.00,WeatherDisplay:10.37,2013-02-20 13:43:00,
2013-02-20 05:48:00,32.6,30.3,29.93,NE,54,3.5,3.5,91,0.00,CLR,,0.00,WeatherDisplay:10.37,2013-02-20 13:48:00,
2013-02-20 05:53:00,32.6,30.3,29.93,NE,52,1.1,1.1,91,0.00,CLR,,0.00,WeatherDisplay:10.37,2013-02-20 13:53:00,
2013-02-20 05:58:00,32.9,30.6,29.93,NW,326,2.3,2.3,91,0.00,CLR,,0.00,WeatherDisplay:10.37,2013-02-20 13:58:00,
2013-02-20 06:03:00,32.9,30.6,29.93,ENE,70,3.0,3.0,91,0.00,CLR,,0.00,WeatherDisplay:10.37,2013-02-20 14:03:00,
2013-02-20 06:08:00,32.6,30.0,29.93,ENE,63,2.3,2.3,90,0.00,CLR,,0.00,WeatherDisplay:10.37,2013-02-20 14:08:00,
2013-02-20 06:13:00,32.5,30.2,29.93,ENE,63,0.0,0.0,91,0.00,CLR,,0.00,WeatherDisplay:10.37,2013-02-20 14:13:00,
2013-02-20 06:18:00,32.3,29.7,29.93,East,86,0.0,0.0,90,0.00,CLR,,0.00,WeatherDisplay:10.37,2013-02-20 14:18:00,
2013-02-20 06:23:00,32.0,29.4,29.94,ENE,73,3.5,3.5,90,0.00,CLR,,0.00,WeatherDisplay:10.37,2013-02-20 14:23:00,
2013-02-20 06:28:00,32.2,29.9,29.94,ENE,69,3.5,3.5,91,0.00,CLR,,0.00,WeatherDisplay:10.37,2013-02-20 14:28:00,
2013-02-20 06:33:00,32.5,30.2,29.94,ENE,64,1.1,1.1,91,0.00,CLR,,0.00,WeatherDisplay:10.37,2013-02-20 14:33:00,
2013-02-20 06:38:00,32.6,30.3,29.94,ENE,75,2.3,2.3,91,0.00,CLR,,0.00,WeatherDisplay:10.37,2013-02-20 14:38:00,
2013-02-20 06:43:00,32.5,29.9,29.94,ENE,71,2.3,2.3,90,0.00,CLR,,0.00,WeatherDisplay:10.37,2013-02-20 14:43:00,
2013-02-20 06:48:00,32.4,29.8,29.95,NE,44,2.3,2.3,90,0.00,CLR,,0.00,WeatherDisplay:10.37,2013-02-20 14:48:00,
2013-02-20 06:53:00,32.4,30.1,29.95,NE,44,0.0,0.0,91,0.00,CLR,,0.00,WeatherDisplay:10.37,2013-02-20 14:53:00,
2013-02-20 06:58:00,32.1,29.5,29.95,NE,44,0.0,0.0,90,0.00,CLR,,0.00,WeatherDisplay:10.37,2013-02-20 14:58:00,
2013-02-20 07:03:00,32.1,29.8,29.95,ENE,68,3.5,3.5,91,0.00,CLR,,0.00,WeatherDisplay:10.37,2013-02-20 15:03:00,
2013-02-20 07:08:00,32.2,29.9,29.95,ENE,72,3.5,3.5,91,0.00,CLR,,0.00,WeatherDisplay:10.37,2013-02-20 15:08:00,
2013-02-20 07:13:00,32.1,29.8,29.96,ENE,60,3.5,3.5,91,0.00,CLR,,0.00,WeatherDisplay:10.37,2013-02-20 15:13:00,
2013-02-20 07:18:00,32.4,30.1,29.96,ENE,59,2.3,2.3,91,0.00,CLR,,0.00,WeatherDisplay:10.37,2013-02-20 15:18:00,
2013-02-20 07:23:00,32.5,30.2,29.96,SSW,207,1.1,0.0,91,0.00,CLR,,0.00,WeatherDisplay:10.37,2013-02-20 15:23:00,
2013-02-20 07:28:00,32.4,29.8,29.96,SSW,207,1.1,1.1,90,0.00,CLR,,0.00,WeatherDisplay:10.37,2013-02-20 15:28:00,
2013-02-20 07:33:00,32.4,30.1,29.96,SSW,201,0.0,0.0,91,0.00,CLR,,0.00,WeatherDisplay:10.37,2013-02-20 15:33:00,
2013-02-20 07:38:00,32.4,30.1,29.97,SSW,200,0.0,0.0,91,0.00,CLR,,0.00,WeatherDisplay:10.37,2013-02-20 15:38:00,
2013-02-20 07:43:00,32.3,30.0,29.97,SSW,201,0.0,0.0,91,0.00,CLR,,0.00,WeatherDisplay:10.37,2013-02-20 15:43:00,
2013-02-20 07:48:00,32.3,30.0,29.97,SSW,201,0.0,0.0,91,0.00,CLR,,0.00,WeatherDisplay:10.37,2013-02-20 15:48:00,
2013-02-20 07:53:00,32.6,30.5,29.97,SSE,161,1.1,1.1,92,0.00,CLR,,0.00,WeatherDisplay:10.37,2013-02-20 15:53:00,
2013-02-20 07:58:00,33.0,30.9,29.98,SSE,160,1.1,0.0,92,0.00,CLR,,0.00,WeatherDisplay:10.37,2013-02-20 15:58:00,
2013-02-20 08:03:00,33.4,31.3,29.98,SSE,160,0.0,0.0,92,0.00,CLR,,0.00,WeatherDisplay:10.37,2013-02-20 16:03:00,
2013-02-20 08:08:00,33.9,31.6,29.98,SSE,158,2.3,2.3,91,0.00,CLR,,0.00,WeatherDisplay:10.37,2013-02-20 16:08:00,
2013-02-20 08:13:00,34.5,32.1,29.98,SSE,156,0.0,0.0,91,0.00,CLR,,0.00,WeatherDisplay:10.37,2013-02-20 16:13:00,
2013-02-20 08:18:00,35.1,32.5,29.99,SSE,166,0.0,0.0,90,0.00,CLR,,0.00,WeatherDisplay:10.37,2013-02-20 16:18:00,
2013-02-20 08:23:00,35.3,32.7,29.99,SE,131,0.0,0.0,90,0.00,CLR,,0.00,WeatherDisplay:10.37,2013-02-20 16:23:00,
2013-02-20 08:28:00,35.6,33.0,29.99,ENE,61,2.3,2.3,90,0.00,CLR,,0.00,WeatherDisplay:10.37,2013-02-20 16:28:00,
2013-02-20 08:33:00,36.1,33.2,29.99,East,91,1.0,1.0,89,0.00,CLR,,0.00,WeatherDisplay:10.37,2013-02-20 16:33:00,
2013-02-20 08:38:00,36.5,33.6,29.99,East,82,1.1,0.0,89,0.00,CLR,,0.00,WeatherDisplay:10.37,2013-02-20 16:38:00,
2013-02-20 08:43:00,37.0,33.8,29.99,ENE,58,1.1,0.0,88,0.00,CLR,,0.00,WeatherDisplay:10.37,2013-02-20 16:43:00,
2013-02-20 08:48:00,37.6,34.4,29.99,ESE,115,1.1,1.1,88,0.00,CLR,,0.00,WeatherDisplay:10.37,2013-02-20 16:48:00,
2013-02-20 08:53:00,38.3,34.8,29.99,South,175,1.1,1.1,87,0.00,CLR,,0.00,WeatherDisplay:10.37,2013-02-20 16:53:00,
2013-02-20 08:58:00,38.8,35.0,29.99,NE,54,2.3,2.3,86,0.00,CLR,,0.00,WeatherDisplay:10.37,2013-02-20 16:58:00,
2013-02-20 09:04:00,39.1,35.3,29.99,NNW,338,3.5,3.5,86,0.00,CLR,,0.00,WeatherDisplay:10.37,2013-02-20 17:04:00,
2013-02-20 09:09:00,39.5,35.4,29.99,NNW,345,3.5,3.5,85,0.00,CLR,,0.00,WeatherDisplay:10.37,2013-02-20 17:09:00,
2013-02-20 09:14:00,40.0,35.6,29.99,NW,323,3.5,3.5,84,0.00,CLR,,0.00,WeatherDisplay:10.37,2013-02-20 17:14:00,
2013-02-20 09:19:00,40.8,36.9,29.99,North,4,3.5,3.5,86,0.00,CLR,,0.00,WeatherDisplay:10.37,2013-02-20 17:19:00,
2013-02-20 09:24:00,41.5,37.6,29.99,North,5,3.5,3.5,86,0.00,CLR,,0.00,WeatherDisplay:10.37,2013-02-20 17:24:00,
2013-02-20 09:29:00,42.6,38.1,29.99,NE,37,4.0,4.0,84,0.00,CLR,,0.00,WeatherDisplay:10.37,2013-02-20 17:29:00,
2013-02-20 09:34:00,43.4,38.3,29.99,NNW,330,5.8,5.8,82,0.00,CLR,,0.00,WeatherDisplay:10.37,2013-02-20 17:34:00,
2013-02-20 09:39:00,44.4,39.6,29.99,NNW,338,3.5,3.5,83,0.00,CLR,,0.00,WeatherDisplay:10.37,2013-02-20 17:39:00,
2013-02-20 09:44:00,45.1,39.3,29.99,NNE,13,3.5,3.5,80,0.00,CLR,,0.00,WeatherDisplay:10.37,2013-02-20 17:44:00,
2013-02-20 09:49:00,46.3,39.5,29.99,ESE,106,1.1,1.1,77,0.00,CLR,,0.00,WeatherDisplay:10.37,2013-02-20 17:49:00,
2013-02-20 09:54:00,47.9,38.9,29.99,NW,310,8.1,8.1,71,0.00,CLR,,0.00,WeatherDisplay:10.37,2013-02-20 17:54:00,
2013-02-20 09:59:00,49.5,39.0,29.99,WNW,293,5.8,5.8,67,0.00,CLR,,0.00,WeatherDisplay:10.37,2013-02-20 17:59:00,
2013-02-20 10:04:00,50.9,37.9,29.99,WSW,255,4.6,4.6,61,0.00,CLR,,0.00,WeatherDisplay:10.37,2013-02-20 18:04:00,
2013-02-20 10:10:00,51.9,34.8,29.99,NW,319,3.5,3.5,52,0.00,CLR,,0.00,WeatherDisplay:10.37,2013-02-20 18:10:00,
2013-02-20 10:15:00,52.7,37.4,29.99,WNW,288,3.5,3.5,56,0.00,CLR,,0.00,WeatherDisplay:10.37,2013-02-20 18:15:00,
2013-02-20 10:20:00,53.5,37.3,29.99,NW,309,2.3,2.3,54,0.00,CLR,,0.00,WeatherDisplay:10.37,2013-02-20 18:20:00,
2013-02-20 10:25:00,54.0,38.2,29.99,SW,225,2.3,2.3,55,0.00,CLR,,0.00,WeatherDisplay:10.37,2013-02-20 18:25:00,
2013-02-20 10:30:00,54.8,37.5,29.99,WSW,248,3.5,3.5,52,0.00,CLR,,0.00,WeatherDisplay:10.37,2013-02-20 18:30:00,
2013-02-20 10:35:00,54.7,35.9,29.99,NW,307,8.1,8.1,49,0.00,CLR,,0.00,WeatherDisplay:10.37,2013-02-20 18:35:00,
2013-02-20 10:40:00,54.7,35.4,29.99,West,278,6.9,6.9,48,0.00,CLR,,0.00,WeatherDisplay:10.37,2013-02-20 18:40:00,
2013-02-20 10:45:00,55.1,32.4,29.99,NW,315,11.5,11.5,42,0.00,CLR,,0.00,WeatherDisplay:10.37,2013-02-20 18:45:00,
2013-02-20 10:50:00,55.4,33.8,30.00,NNW,341,4.6,4.6,44,0.00,CLR,,0.00,WeatherDisplay:10.37,2013-02-20 18:50:00,
2013-02-20 10:55:00,55.8,34.2,30.00,North,351,3.5,3.5,44,0.00,CLR,,0.00,WeatherDisplay:10.37,2013-02-20 18:55:00,
2013-02-20 11:00:00,55.7,32.9,29.99,NW,304,9.2,9.2,42,0.00,CLR,,0.00,WeatherDisplay:10.37,2013-02-20 19:00:00,
2013-02-20 11:06:00,56.1,33.3,29.99,NW,309,9.2,9.2,42,0.00,CLR,,0.00,WeatherDisplay:10.37,2013-02-20 19:06:00,
2013-02-20 11:11:00,56.5,33.7,29.99,WNW,298,6.9,6.9,42,0.00,CLR,,0.00,WeatherDisplay:10.37,2013-02-20 19:11:00,
2013-02-20 11:16:00,56.5,33.7,29.99,NW,326,10.4,10.4,42,0.00,CLR,,0.00,WeatherDisplay:10.37,2013-02-20 19:16:00,
2013-02-20 11:21:00,56.7,32.6,29.99,NNW,328,11.5,11.5,40,0.00,CLR,,0.00,WeatherDisplay:10.37,2013-02-20 19:21:00,
2013-02-20 11:26:00,57.1,33.0,29.98,NNW,342,8.1,8.1,40,0.00,CLR,,0.00,WeatherDisplay:10.37,2013-02-20 19:26:00,
2013-02-20 11:31:00,57.0,33.5,29.98,NNW,329,13.8,13.8,41,0.00,CLR,,0.00,WeatherDisplay:10.37,2013-02-20 19:31:00,
2013-02-20 11:36:00,57.4,34.5,29.98,West,276,8.1,8.1,42,0.00,CLR,,0.00,WeatherDisplay:10.37,2013-02-20 19:36:00,
2013-02-20 11:41:00,57.5,33.3,29.98,NNW,346,9.2,9.2,40,0.00,CLR,,0.00,WeatherDisplay:10.37,2013-02-20 19:41:00,
2013-02-20 11:46:00,57.6,32.8,29.98,NW,323,9.2,9.2,39,0.00,CLR,,0.00,WeatherDisplay:10.37,2013-02-20 19:46:00,
2013-02-20 11:52:00,57.8,32.3,29.98,NNW,338,6.9,6.9,38,0.00,CLR,,0.00,WeatherDisplay:10.37,2013-02-20 19:52:00,
2013-02-20 11:57:00,58.1,34.5,29.98,NW,323,10.4,10.4,41,0.00,CLR,,0.00,WeatherDisplay:10.37,2013-02-20 19:57:00,
2013-02-20 12:02:00,58.5,33.0,29.98,NW,310,5.8,5.8,38,0.00,CLR,,0.00,WeatherDisplay:10.37,2013-02-20 20:02:00,
2013-02-20 12:07:00,59.1,34.8,29.98,North,8,11.5,11.5,40,0.00,CLR,,0.00,WeatherDisplay:10.37,2013-02-20 20:07:00,
2013-02-20 12:12:00,58.8,33.9,29.98,NW,311,8.1,8.1,39,0.00,CLR,,0.00,WeatherDisplay:10.37,2013-02-20 20:12:00,
2013-02-20 12:17:00,59.4,32.4,29.97,NNW,347,10.4,10.4,36,0.00,CLR,,0.00,WeatherDisplay:10.37,2013-02-20 20:17:00,
2013-02-20 12:22:00,59.3,31.6,29.98,NNW,341,12.7,12.7,35,0.00,CLR,,0.00,WeatherDisplay:10.37,2013-02-20 20:22:00,
2013-02-20 12:27:00,59.5,33.9,29.97,NNE,29,17.3,17.3,38,0.00,CLR,,0.00,WeatherDisplay:10.37,2013-02-20 20:27:00,
2013-02-20 12:32:00,59.5,31.8,29.97,NNW,342,11.5,11.5,35,0.00,CLR,,0.00,WeatherDisplay:10.37,2013-02-20 20:32:00,
2013-02-20 12:37:00,59.4,32.4,29.97,NW,326,12.7,12.7,36,0.00,CLR,,0.00,WeatherDisplay:10.37,2013-02-20 20:37:00,
2013-02-20 12:42:00,59.6,33.3,29.97,WNW,301,15.0,15.0,37,0.00,CLR,,0.00,WeatherDisplay:10.37,2013-02-20 20:42:00,
2013-02-20 12:48:00,59.7,34.0,29.97,NW,314,11.5,11.5,38,0.00,CLR,,0.00,WeatherDisplay:10.37,2013-02-20 20:48:00,
2013-02-20 12:53:00,59.8,32.8,29.97,NNW,330,13.8,13.8,36,0.00,CLR,,0.00,WeatherDisplay:10.37,2013-02-20 20:53:00,
2013-02-20 12:58:00,59.7,32.0,29.97,North,359,10.4,10.4,35,0.00,CLR,,0.00,WeatherDisplay:10.37,2013-02-20 20:58:00,
2013-02-20 13:03:00,60.0,32.2,29.97,North,354,10.4,10.4,35,0.00,CLR,,0.00,WeatherDisplay:10.37,2013-02-20 21:03:00,
2013-02-20 13:08:00,60.1,31.6,29.97,NNW,328,10.4,10.4,34,0.00,CLR,,0.00,WeatherDisplay:10.37,2013-02-20 21:08:00,
2013-02-20 13:13:00,59.9,32.2,29.96,WNW,301,7.0,7.0,35,0.00,CLR,,0.00,WeatherDisplay:10.37,2013-02-20 21:13:00,
2013-02-20 13:18:00,59.9,32.2,29.96,NNW,334,9.2,9.2,35,0.00,CLR,,0.00,WeatherDisplay:10.37,2013-02-20 21:18:00,
2013-02-20 13:23:00,60.1,31.6,29.95,NW,315,10.4,10.4,34,0.00,CLR,,0.00,WeatherDisplay:10.37,2013-02-20 21:23:00,
2013-02-20 13:28:00,60.5,31.2,29.95,NW,309,11.5,11.5,33,0.00,CLR,,0.00,WeatherDisplay:10.37,2013-02-20 21:28:00,
2013-02-20 13:33:00,60.9,31.6,29.95,NNW,341,8.1,8.1,33,0.00,CLR,,0.00,WeatherDisplay:10.37,2013-02-20 21:33:00,
2013-02-20 13:38:00,60.9,30.8,29.96,NNE,17,9.2,9.2,32,0.00,CLR,,0.00,WeatherDisplay:10.37,2013-02-20 21:38:00,
2013-02-20 13:43:00,60.7,30.6,29.95,West,276,10.4,10.4,32,0.00,CLR,,0.00,WeatherDisplay:10.37,2013-02-20 21:43:00,
2013-02-20 13:48:00,61.2,31.1,29.95,NNW,332,8.1,8.1,32,0.00,CLR,,0.00,WeatherDisplay:10.37,2013-02-20 21:48:00,
2013-02-20 13:53:00,61.2,33.3,29.95,North,8,13.8,13.8,35,0.00,CLR,,0.00,WeatherDisplay:10.37,2013-02-20 21:53:00,
2013-02-20 13:58:00,61.0,31.7,29.95,NNW,334,10.4,10.4,33,0.00,CLR,,0.00,WeatherDisplay:10.37,2013-02-20 21:58:00,
2013-02-20 14:04:00,61.3,29.6,29.95,NNW,334,11.5,11.5,30,0.00,CLR,,0.00,WeatherDisplay:10.37,2013-02-20 22:04:00,
2013-02-20 14:09:00,61.7,29.9,29.95,NW,316,8.1,8.1,30,0.00,CLR,,0.00,WeatherDisplay:10.37,2013-02-20 22:09:00,
2013-02-20 14:14:00,61.7,33.0,29.95,NW,306,11.5,11.5,34,0.00,CLR,,0.00,WeatherDisplay:10.37,2013-02-20 22:14:00,
2013-02-20 14:19:00,61.9,32.5,29.94,NW,318,9.2,9.2,33,0.00,CLR,,0.00,WeatherDisplay:10.37,2013-02-20 22:19:00,
2013-02-20 14:24:00,61.9,30.9,29.94,NW,319,9.2,9.2,31,0.00,CLR,,0.00,WeatherDisplay:10.37,2013-02-20 22:24:00,
2013-02-20 14:29:00,61.9,30.1,29.94,NW,307,12.7,12.7,30,0.00,CLR,,0.00,WeatherDisplay:10.37,2013-02-20 22:29:00,
2013-02-20 14:34:00,62.2,31.2,29.94,WNW,286,3.5,3.9,31,0.00,CLR,,0.00,WeatherDisplay:10.37,2013-02-20 22:34:00,
2013-02-20 14:39:00,62.6,30.7,29.94,West,273,3.5,3.5,30,0.00,CLR,,0.00,WeatherDisplay:10.37,2013-02-20 22:39:00,
2013-02-20 14:44:00,62.8,31.7,29.94,West,271,6.9,6.9,31,0.00,CLR,,0.00,WeatherDisplay:10.37,2013-02-20 22:44:00,
2013-02-20 14:49:00,62.9,31.8,29.94,NNW,333,10.4,10.4,31,0.00,CLR,,0.00,WeatherDisplay:10.37,2013-02-20 22:49:00,
2013-02-20 14:55:00,62.8,32.5,29.94,NW,310,5.8,5.8,32,0.00,CLR,,0.00,WeatherDisplay:10.37,2013-02-20 22:55:00,
2013-02-20 15:00:00,63.7,31.7,29.94,NW,315,4.6,4.6,30,0.00,CLR,,0.00,WeatherDisplay:10.37,2013-02-20 23:00:00,
2013-02-20 15:05:00,63.6,32.4,29.94,NW,305,10.0,10.0,31,0.00,CLR,,0.00,WeatherDisplay:10.37,2013-02-20 23:05:00,
2013-02-20 15:10:00,62.8,30.9,29.94,NNW,343,10.4,10.4,30,0.00,CLR,,0.00,WeatherDisplay:10.37,2013-02-20 23:10:00,
2013-02-20 15:15:00,63.1,31.9,29.94,NW,311,4.6,4.6,31,0.00,CLR,,0.00,WeatherDisplay:10.37,2013-02-20 23:15:00,
2013-02-20 15:20:00,63.4,32.2,29.94,NW,316,4.0,4.0,31,0.00,CLR,,0.00,WeatherDisplay:10.37,2013-02-20 23:20:00,
2013-02-20 15:25:00,63.5,31.5,29.94,NW,319,6.9,6.9,30,0.00,CLR,,0.00,WeatherDisplay:10.37,2013-02-20 23:25:00,
2013-02-20 15:30:00,63.0,30.2,29.94,SW,236,5.8,5.8,29,0.00,CLR,,0.00,WeatherDisplay:10.37,2013-02-20 23:30:00,
2013-02-20 15:35:00,62.7,30.8,29.94,North,349,6.9,6.9,30,0.00,CLR,,0.00,WeatherDisplay:10.37,2013-02-20 23:35:00,
2013-02-20 15:40:00,62.2,32.0,29.95,NNW,327,11.5,11.5,32,0.00,CLR,,0.00,WeatherDisplay:10.37,2013-02-20 23:40:00,
2013-02-20 15:45:00,62.1,32.6,29.95,NW,315,8.1,8.1,33,0.00,CLR,,0.00,WeatherDisplay:10.37,2013-02-20 23:45:00,
2013-02-20 15:50:00,62.3,31.3,29.95,NW,315,7.0,7.0,31,0.00,CLR,,0.00,WeatherDisplay:10.37,2013-02-20 23:50:00,
2013-02-20 15:55:00,62.7,32.4,29.95,NNW,344,5.8,5.8,32,0.00,CLR,,0.00,WeatherDisplay:10.37,2013-02-20 23:55:00,
2013-02-20 16:00:00,62.2,31.2,29.95,NW,316,9.2,9.2,31,0.00,CLR,,0.00,WeatherDisplay:10.37,2013-02-21 00:00:00,
2013-02-20 16:05:00,62.3,32.0,29.95,NNW,338,9.2,9.2,32,0.00,CLR,,0.00,WeatherDisplay:10.37,2013-02-21 00:05:00,
2013-02-20 16:10:00,61.9,31.7,29.95,NNW,334,9.2,9.2,32,0.00,CLR,,0.00,WeatherDisplay:10.37,2013-02-21 00:10:00,
2013-02-20 16:15:00,61.5,30.6,29.95,WNW,302,9.2,9.2,31,0.00,CLR,,0.00,WeatherDisplay:10.37,2013-02-21 00:15:00,
2013-02-20 16:20:00,61.3,30.4,29.95,NNW,334,9.2,9.2,31,0.00,CLR,,0.00,WeatherDisplay:10.37,2013-02-21 00:20:00,
2013-02-20 16:25:00,61.0,31.7,29.95,NNW,342,8.1,8.1,33,0.00,CLR,,0.00,WeatherDisplay:10.37,2013-02-21 00:25:00,
2013-02-20 16:30:00,61.1,34.6,29.95,West,270,3.5,3.5,37,0.00,CLR,,0.00,WeatherDisplay:10.37,2013-02-21 00:30:00,
2013-02-20 16:36:00,61.7,35.8,29.95,WNW,288,4.0,4.0,38,0.00,CLR,,0.00,WeatherDisplay:10.37,2013-02-21 00:36:00,
2013-02-20 16:41:00,61.3,34.8,29.95,WNW,300,5.8,5.8,37,0.00,CLR,,0.00,WeatherDisplay:10.37,2013-02-21 00:41:00,
2013-02-20 16:46:00,60.9,35.1,29.95,West,281,2.3,2.3,38,0.00,CLR,,0.00,WeatherDisplay:10.37,2013-02-21 00:46:00,
2013-02-20 16:51:00,60.8,35.0,29.96,West,263,3.5,3.5,38,0.00,CLR,,0.00,WeatherDisplay:10.37,2013-02-21 00:51:00,
2013-02-20 16:56:00,60.5,35.4,29.96,West,274,3.5,3.5,39,0.00,CLR,,0.00,WeatherDisplay:10.37,2013-02-21 00:56:00,
2013-02-20 17:01:00,60.2,35.8,29.96,NNW,328,2.3,2.3,40,0.00,CLR,,0.00,WeatherDisplay:10.37,2013-02-21 01:01:00,
2013-02-20 17:06:00,59.9,34.9,29.96,NW,307,2.3,2.3,39,0.00,CLR,,0.00,WeatherDisplay:10.37,2013-02-21 01:06:00,
2013-02-20 17:11:00,59.4,34.4,29.96,NW,319,5.8,5.8,39,0.00,CLR,,0.00,WeatherDisplay:10.37,2013-02-21 01:11:00,
2013-02-20 17:16:00,59.1,34.8,29.96,WSW,249,3.5,3.5,40,0.00,CLR,,0.00,WeatherDisplay:10.37,2013-02-21 01:16:00,
2013-02-20 17:21:00,58.7,35.0,29.96,West,263,4.6,4.6,41,0.00,CLR,,0.00,WeatherDisplay:10.37,2013-02-21 01:21:00,
2013-02-20 17:26:00,58.3,35.3,29.97,NNW,331,2.0,2.0,42,0.00,CLR,,0.00,WeatherDisplay:10.37,2013-02-21 01:26:00,
2013-02-20 17:31:00,57.8,35.4,29.97,NW,319,5.8,5.8,43,0.00,CLR,,0.00,WeatherDisplay:10.37,2013-02-21 01:31:00,
2013-02-20 17:36:00,57.5,35.7,29.97,North,351,5.8,5.8,44,0.00,CLR,,0.00,WeatherDisplay:10.37,2013-02-21 01:36:00,
2013-02-20 17:41:00,57.2,35.5,29.97,North,355,8.1,8.1,44,0.00,CLR,,0.00,WeatherDisplay:10.37,2013-02-21 01:41:00,
2013-02-20 17:46:00,57.2,36.0,29.97,WSW,242,3.5,3.5,45,0.00,CLR,,0.00,WeatherDisplay:10.37,2013-02-21 01:46:00,
2013-02-20 17:51:00,56.9,35.8,29.98,NW,312,3.5,3.5,45,0.00,CLR,,0.00,WeatherDisplay:10.37,2013-02-21 01:51:00,
2013-02-20 17:56:00,56.5,36.0,29.97,NW,326,3.5,3.5,46,0.00,CLR,,0.00,WeatherDisplay:10.37,2013-02-21 01:56:00,
2013-02-20 18:01:00,55.9,37.0,29.97,North,4,2.3,2.3,49,0.00,CLR,,0.00,WeatherDisplay:10.37,2013-02-21 02:01:00,
2013-02-20 18:06:00,54.9,36.6,29.97,North,349,1.1,1.1,50,0.00,CLR,,0.00,WeatherDisplay:10.37,2013-02-21 02:06:00,
2013-02-20 18:11:00,54.0,36.8,29.98,North,349,1.1,1.1,52,0.00,CLR,,0.00,WeatherDisplay:10.37,2013-02-21 02:11:00,
2013-02-20 18:16:00,53.3,36.6,29.98,North,349,1.0,1.0,53,0.00,CLR,,0.00,WeatherDisplay:10.37,2013-02-21 02:16:00,
2013-02-20 18:21:00,53.0,36.8,29.98,North,358,1.0,1.0,54,0.00,CLR,,0.00,WeatherDisplay:10.37,2013-02-21 02:21:00,
2013-02-20 18:26:00,52.9,36.7,29.98,North,5,0.0,0.0,54,0.00,CLR,,0.00,WeatherDisplay:10.37,2013-02-21 02:26:00,
2013-02-20 18:31:00,52.8,36.6,29.98,NE,41,1.1,1.1,54,0.00,CLR,,0.00,WeatherDisplay:10.37,2013-02-21 02:31:00,
2013-02-20 18:36:00,52.6,36.4,29.99,NE,41,1.1,0.0,54,0.00,CLR,,0.00,WeatherDisplay:10.37,2013-02-21 02:36:00,
2013-02-20 18:41:00,52.6,36.9,29.99,NNW,342,3.5,3.5,55,0.00,CLR,,0.00,WeatherDisplay:10.37,2013-02-21 02:41:00,
2013-02-20 18:46:00,52.3,36.6,29.99,North,352,3.5,3.5,55,0.00,CLR,,0.00,WeatherDisplay:10.37,2013-02-21 02:46:00,
2013-02-20 18:51:00,51.6,36.9,29.99,NNW,328,3.5,3.5,57,0.00,CLR,,0.00,WeatherDisplay:10.37,2013-02-21 02:51:00,
2013-02-20 18:56:00,50.9,37.1,30.00,NNW,336,3.5,3.5,59,0.00,CLR,,0.00,WeatherDisplay:10.37,2013-02-21 02:56:00,
2013-02-20 19:01:00,50.4,37.0,30.00,NNW,327,3.5,3.5,60,0.00,CLR,,0.00,WeatherDisplay:10.37,2013-02-21 03:01:00,
2013-02-20 19:06:00,50.3,37.4,30.00,NW,326,3.5,3.5,61,0.00,CLR,,0.00,WeatherDisplay:10.37,2013-02-21 03:06:00,
2013-02-20 19:11:00,49.8,37.3,30.00,NNW,333,2.3,2.3,62,0.00,CLR,,0.00,WeatherDisplay:10.37,2013-02-21 03:11:00,
2013-02-20 19:16:00,49.4,37.3,30.00,NW,307,3.5,3.5,63,0.00,CLR,,0.00,WeatherDisplay:10.37,2013-02-21 03:16:00,
2013-02-20 19:22:00,49.8,37.7,30.01,NW,315,5.0,5.0,63,0.00,CLR,,0.00,WeatherDisplay:10.37,2013-02-21 03:22:00,
2013-02-20 19:27:00,49.5,37.8,30.01,NNW,330,3.5,3.5,64,0.00,CLR,,0.00,WeatherDisplay:10.37,2013-02-21 03:27:00,
2013-02-20 19:32:00,48.8,37.6,30.01,NNW,332,3.5,3.5,65,0.00,CLR,,0.00,WeatherDisplay:10.37,2013-02-21 03:32:00,
2013-02-20 19:37:00,48.5,38.0,30.01,NW,314,4.0,4.0,67,0.00,CLR,,0.00,WeatherDisplay:10.37,2013-02-21 03:37:00,
2013-02-20 19:42:00,49.1,38.6,30.02,North,349,4.6,4.6,67,0.00,CLR,,0.00,WeatherDisplay:10.37,2013-02-21 03:42:00,
2013-02-20 19:47:00,50.1,38.4,30.02,WNW,297,4.6,4.6,64,0.00,CLR,,0.00,WeatherDisplay:10.37,2013-02-21 03:47:00,
2013-02-20 19:53:00,50.8,38.7,30.02,NW,316,4.6,4.6,63,0.00,CLR,,0.00,WeatherDisplay:10.37,2013-02-21 03:53:00,
2013-02-20 19:58:00,50.8,38.7,30.02,NW,326,3.5,3.5,63,0.00,CLR,,0.00,WeatherDisplay:10.37,2013-02-21 03:58:00,
2013-02-20 20:03:00,50.8,38.7,30.02,NNW,335,4.0,4.0,63,0.00,CLR,,0.00,WeatherDisplay:10.37,2013-02-21 04:03:00,
2013-02-20 20:08:00,50.9,38.7,30.02,NNW,339,4.6,4.6,63,0.00,CLR,,0.00,WeatherDisplay:10.37,2013-02-21 04:08:00,
2013-02-20 20:13:00,50.2,38.5,30.03,North,356,3.5,3.5,64,0.00,CLR,,0.00,WeatherDisplay:10.37,2013-02-21 04:13:00,
2013-02-20 20:18:00,49.5,38.2,30.03,NNW,328,2.3,2.3,65,0.00,CLR,,0.00,WeatherDisplay:10.37,2013-02-21 04:18:00,
2013-02-20 20:23:00,48.8,37.9,30.03,North,1,2.0,2.0,66,0.00,CLR,,0.00,WeatherDisplay:10.37,2013-02-21 04:23:00,
2013-02-20 20:28:00,48.4,38.3,30.03,NNW,331,2.3,2.3,68,0.00,CLR,,0.00,WeatherDisplay:10.37,2013-02-21 04:28:00,
2013-02-20 20:33:00,48.3,38.2,30.03,North,360,2.3,2.3,68,0.00,CLR,,0.00,WeatherDisplay:10.37,2013-02-21 04:33:00,
2013-02-20 20:38:00,48.0,38.3,30.03,NNE,22,2.3,2.3,69,0.00,CLR,,0.00,WeatherDisplay:10.37,2013-02-21 04:38:00,
2013-02-20 20:43:00,48.0,38.3,30.03,NNE,22,1.1,1.1,69,0.00,CLR,,0.00,WeatherDisplay:10.37,2013-02-21 04:43:00,
2013-02-20 20:48:00,47.8,38.1,30.03,NW,321,2.0,2.0,69,0.00,CLR,,0.00,WeatherDisplay:10.37,2013-02-21 04:48:00,
2013-02-20 20:53:00,47.7,38.0,30.03,NNW,330,2.3,2.3,69,0.00,CLR,,0.00,WeatherDisplay:10.37,2013-02-21 04:53:00,
2013-02-20 20:58:00,47.4,38.1,30.03,NNW,339,2.3,2.3,70,0.00,CLR,,0.00,WeatherDisplay:10.37,2013-02-21 04:58:00,
2013-02-20 21:00:00,47.4,38.1,30.03,NNW,338,3.5,3.5,70,0.00,CLR,,0.00,WeatherDisplay:10.37,2013-02-21 05:00:00,
2013-02-20 21:01:00,47.3,38.0,30.03,NNW,334,5.0,5.0,70,0.00,CLR,,0.00,WeatherDisplay:10.37,2013-02-21 05:01:00,
2013-02-20 21:06:00,46.5,37.2,30.03,NNW,342,4.0,4.0,70,0.00,CLR,,0.00,WeatherDisplay:10.37,2013-02-21 05:06:00,
2013-02-20 21:07:00,46.1,37.2,30.04,NNW,333,3.5,3.5,71,0.00,CLR,,0.00,WeatherDisplay:10.37,2013-02-21 05:07:00,
2013-02-20 21:12:00,45.2,37.1,30.04,North,358,3.5,3.5,73,0.00,CLR,,0.00,WeatherDisplay:10.37,2013-02-21 05:12:00,
2013-02-20 21:17:00,44.8,37.4,30.04,NNW,342,3.5,3.5,75,0.00,CLR,,0.00,WeatherDisplay:10.37,2013-02-21 05:17:00,
2013-02-20 21:22:00,45.1,37.6,30.04,NNW,339,3.5,3.5,75,0.00,CLR,,0.00,WeatherDisplay:10.37,2013-02-21 05:22:00,
2013-02-20 21:28:00,45.1,37.6,30.05,NW,326,3.5,3.5,75,0.00,CLR,,0.00,WeatherDisplay:10.37,2013-02-21 05:28:00,
2013-02-20 21:33:00,45.5,38.0,30.05,NW,310,3.5,3.5,75,0.00,CLR,,0.00,WeatherDisplay:10.37,2013-02-21 05:33:00,
2013-02-20 21:38:00,45.7,37.9,30.05,NW,309,2.3,2.3,74,0.00,CLR,,0.00,WeatherDisplay:10.37,2013-02-21 05:38:00,
2013-02-20 21:43:00,45.4,37.6,30.05,WSW,245,2.3,2.3,74,0.00,CLR,,0.00,WeatherDisplay:10.37,2013-02-21 05:43:00,
2013-02-20 21:48:00,45.0,37.6,30.06,NW,310,1.1,1.1,75,0.00,CLR,,0.00,WeatherDisplay:10.37,2013-02-21 05:48:00,
2013-02-20 21:53:00,44.6,37.2,30.06,NNW,332,1.1,1.1,75,0.00,CLR,,0.00,WeatherDisplay:10.37,2013-02-21 05:53:00,
2013-02-20 21:58:00,43.9,36.5,30.06,North,359,1.1,1.1,75,0.00,CLR,,0.00,WeatherDisplay:10.37,2013-02-21 05:58:00,
2013-02-20 22:03:00,44.5,37.7,30.06,NW,308,3.5,3.5,77,0.00,CLR,,0.00,WeatherDisplay:10.37,2013-02-21 06:03:00,
2013-02-20 22:08:00,45.3,37.8,30.05,NW,307,2.3,2.3,75,0.00,CLR,,0.00,WeatherDisplay:10.37,2013-02-21 06:08:00,
2013-02-20 22:14:00,45.4,37.2,30.06,NE,41,2.3,2.3,73,0.00,CLR,,0.00,WeatherDisplay:10.37,2013-02-21 06:14:00,
2013-02-20 22:19:00,44.0,36.6,30.06,NNE,17,3.5,3.5,75,0.00,CLR,,0.00,WeatherDisplay:10.37,2013-02-21 06:19:00,
2013-02-20 22:24:00,43.6,36.9,30.06,NNW,345,3.5,3.5,77,0.00,CLR,,0.00,WeatherDisplay:10.37,2013-02-21 06:24:00,
2013-02-20 22:29:00,43.2,36.8,30.06,NNW,333,2.3,2.3,78,0.00,CLR,,0.00,WeatherDisplay:10.37,2013-02-21 06:29:00,
2013-02-20 22:34:00,42.7,36.6,30.05,NNW,329,1.1,1.1,79,0.00,CLR,,0.00,WeatherDisplay:10.37,2013-02-21 06:34:00,
2013-02-20 22:39:00,42.5,36.8,30.05,NNW,330,2.0,2.0,80,0.00,CLR,,0.00,WeatherDisplay:10.37,2013-02-21 06:39:00,
2013-02-20 22:44:00,42.3,36.6,30.05,North,349,2.3,2.3,80,0.00,CLR,,0.00,WeatherDisplay:10.37,2013-02-21 06:44:00,
2013-02-20 22:49:00,42.3,36.6,30.05,NW,323,1.1,1.1,80,0.00,CLR,,0.00,WeatherDisplay:10.37,2013-02-21 06:49:00,
2013-02-20 22:54:00,42.0,36.6,30.05,NNW,329,2.3,2.3,81,0.00,CLR,,0.00,WeatherDisplay:10.37,2013-02-21 06:54:00,
2013-02-20 22:59:00,42.0,36.6,30.06,NW,326,1.1,1.1,81,0.00,CLR,,0.00,WeatherDisplay:10.37,2013-02-21 06:59:00,
2013-02-20 23:04:00,42.0,36.9,30.06,NW,326,1.1,1.1,82,0.00,CLR,,0.00,WeatherDisplay:10.37,2013-02-21 07:04:00,
2013-02-20 23:09:00,41.9,36.5,30.06,NW,326,0.0,0.0,81,0.00,CLR,,0.00,WeatherDisplay:10.37,2013-02-21 07:09:00,
2013-02-20 23:14:00,41.7,36.6,30.06,NW,326,1.1,1.1,82,0.00,CLR,,0.00,WeatherDisplay:10.37,2013-02-21 07:14:00,
2013-02-20 23:19:00,41.7,36.6,30.06,NW,326,1.1,1.1,82,0.00,CLR,,0.00,WeatherDisplay:10.37,2013-02-21 07:19:00,
2013-02-20 23:24:00,41.9,36.8,30.05,NW,326,1.1,1.1,82,0.00,CLR,,0.00,WeatherDisplay:10.37,2013-02-21 07:24:00,
2013-02-20 23:30:00,41.9,36.8,30.06,NW,314,2.3,2.3,82,0.00,CLR,,0.00,WeatherDisplay:10.37,2013-02-21 07:30:00,
2013-02-20 23:35:00,41.6,36.2,30.06,NW,314,0.0,0.0,81,0.00,CLR,,0.00,WeatherDisplay:10.37,2013-02-21 07:35:00,
2013-02-20 23:40:00,40.7,35.3,30.06,North,9,2.3,2.3,81,0.00,CLR,,0.00,WeatherDisplay:10.37,2013-02-21 07:40:00,
2013-02-20 23:45:00,39.7,35.0,30.06,North,11,2.3,2.3,83,0.00,CLR,,0.00,WeatherDisplay:10.37,2013-02-21 07:45:00,
2013-02-20 23:50:00,39.5,35.4,30.06,North,11,1.1,1.1,85,0.00,CLR,,0.00,WeatherDisplay:10.37,2013-02-21 07:50:00,
2013-02-20 23:55:00,39.5,35.4,30.06,NNW,347,1.1,1.1,85,0.00,CLR,,0.00,WeatherDisplay:10.37,2013-02-21 07:55:00,